Hauptseite
METAR-TAF:

METAR-TAF

Flughäfen :

Flughafen Dole-Jura

Dole, Frankreich

Breite: 47-02-34N, Länge: 005-26-06E, Höhe: 196 m

Beobachtung

Neuester Wetterbericht von vor 30 Minuten, um 13:00 UTC
Wind 7 kt aus Nord, variierte zwischen Nordwest und Nord/Nordost
Temperatur 25°C
Luftfeuchtigkeit 30%
Luftdruck 1011 hPa
Sichtweite 10 km oder mehr
keine Wolken unter 1500 m und keine Kumulonimbus oder Gewitterwolken

METAR: LFGJ 151300Z AUTO 36007KT 320V030 CAVOK 25/06 Q1011 NOSIG

Zeit: 15:30 (13:30 UTC)

Prognose

Neuester Wetterbericht von vor 2 Stunden und 30 Minuten, um 11:00 UTC
Gültige Prognose vom 15 um 12 UTC bis 15 um 21 UTC
Wind 8 kt aus Nordost
Sichtweite 10 km oder mehr
keine Wolken unter 1500 m und keine Kumulonimbus oder Gewitterwolken

TAF: LFGJ 151100Z 1512/1521 05008KT CAVOK

Wetterbeobachtungen und Prognosen von mehr als 4000 Flughäfen (METAR und TAF Bericht).

Die verfügbaren Stationen werden durch gelbe und rote Markierungen auf der Karte dargestellt.

Führen Sie die Maus auf sie, um den Namen der Station zu sehen.

Darauf klicken, um die Beobachtung von Wetterbeobachtungen und Prognosen zu sehen.

Um die Karte zu ändern : klicken Sie auf den grünen Tasten mit einem schwarzen Kreuz Zum Vergrößern, auf den grünen Button mit einem Gedankenstrich zu verkleinern, oder auf die grünen Pfeile für benachbarte Karten.


METAR-TAF: